Startpagina
METAR-TAF:

METAR-TAF

Vliegvelden :

Woensdrecht, Nederland

Vliegbasis Woensdrecht

breedte: 51-27N, lengte: 004-20E, hoogte: 20 m

Actueel weer

Dit bericht is 13 minuten geleden gemaakt, om 10:55 UTC
Wind 10 kt uit het oosten, variërend tussen het noordoosten en het zuidoosten
Temperatuur 25°C
Vochtigheid 44%
Druk 1020 hPa
Zicht 10 km of meer

METAR: EHWO 261055Z AUTO 09010KT 050V140 9999 NCD 25/12 Q1020 BLU

Tijdstip: 13:08 (11:08 UTC)


TAF: ontbreekt

Waarnemingen en weersverwachtingen van meer dan 4000 vliegvelden (METAR en TAF).

De beschikbare stations zijn de gele en rode punten op de kaart.

Ga met uw muis naar het station om de naam te zien.

Klik dan om waarnemingen en weersverwachtingen te zien.

kaart wijzigen: klik op de groene knoppen met een zwart kruis om in te zoomen, op de groene knop met een streepje om uit te zoomen of op de groene pijlen voor aangrenzende kaarten.


METAR-TAF: